Savoy, Texas
Current Conditions -  °F | °C
As of 1:55 AM on Saturday 25 Oct 2014 (Local Time) from KGYI Reporting Station
Clear Clear  
Wind Chill: 66°   Ceiling: Unl
Heat Index: 66°   Visibility: 10mi
Dew Point: 61°   Wind: 7mph
Humidity: 84%   Direction: 180°S
Pressure: 30.1"   Gusts: NA
Location:  33.6°N, 96.37°W
Report Text: KGYI 250655Z AUTO 18006KT 10SM CLR 19/16 A3010 RMK AO2 T01900163
Loading
Personal Weather Stations






























Interactive Weather Map
Tropical Storm Tracking
New forecast layout! Learn more

10-Day Weather Forecast

Advertisements
Track Severe Weather on mobile